Fenton River @ Mansfield, Ct

Fenton River at Mansfield, CT
 Total Drainage Area: 18 sq. miles 
 Drainage Area Controlled by Corps Dams: 0 sq. miles (0%) 
 Warning Flow/Stage: ?? cfs / ?? feet 
 Flood Flow/Stage: ?? cfs / ?? feet 
Date Time
(Eastern)
Stage
(ft)
Flow
(cfs)
CSM
(cfs / sq. mi.)
Jan-31 03:15 pm 3.99 75 4.2
Jan-31 02:15 pm 3.98 74 4.1
Jan-31 01:15 pm 4.00 76 4.3
Jan-31 12:15 pm 3.99 75 4.2
Jan-31 11:15 am 3.99 75 4.2
Jan-31 10:15 am 4.00 76 4.3
Jan-31 09:15 am 3.99 75 4.2
Jan-31 08:15 am 3.99 75 4.2
Jan-31 07:15 am 4.00 76 4.3
Jan-31 06:15 am 4.00 76 4.3
Jan-31 05:15 am 4.01 78 4.3
Jan-31 04:15 am 4.01 78 4.3
Jan-31 03:15 am 4.00 76 4.3
Jan-31 02:15 am 4.02 79 4.4
Jan-31 01:15 am 4.02 79 4.4
Jan-31 12:15 am 4.01 78 4.3
Jan-30 11:15 pm 4.03 80 4.5
Jan-30 10:15 pm 4.02 79 4.4
Jan-30 09:15 pm 4.02 79 4.4
Jan-30 08:15 pm 4.02 79 4.4
Jan-30 07:15 pm 4.03 80 4.5
Jan-30 06:15 pm 4.04 82 4.5
Jan-30 05:15 pm 4.05 83 4.6
Jan-30 04:15 pm 4.03 80 4.5
Jan-30 03:15 pm 4.05 83 4.6
Report Generated January 31, 2023 03:31 pm